Time;durP1;ratioP1;P1;durP2;ratioP2;P2;SDS_P1;SDS_P2;PMS_P1;PMS_P2;Temp;Humidity;BMP_temperature;BMP_pressure;BME280_temperature;BME280_humidity;BME280_pressure;Samples;Min_cycle;Max_cycle;Signal;HPM_P1;HPM_P2
2023/08/20 00:01:28;;;;;;;0.45;0.40;;;23.70;74.10;;;;;;5024219;28;20045;-79
2023/08/20 00:03:54;;;;;;;0.50;0.30;;;23.70;73.90;;;;;;5025151;28;20095;-78
2023/08/20 00:06:20;;;;;;;0.40;0.40;;;23.60;74.00;;;;;;5025561;28;20057;-78
2023/08/20 00:08:46;;;;;;;0.70;0.40;;;23.70;74.10;;;;;;5024815;28;20064;-78
2023/08/20 00:11:12;;;;;;;0.80;0.30;;;23.70;74.10;;;;;;5025034;28;20455;-78
2023/08/20 00:13:38;;;;;;;0.60;0.40;;;23.70;74.10;;;;;;5023617;28;20057;-78
2023/08/20 00:16:04;;;;;;;0.47;0.38;;;23.60;74.10;;;;;;5022743;28;20049;-78
2023/08/20 00:18:30;;;;;;;0.52;0.40;;;23.60;74.10;;;;;;5024937;28;20069;-78
2023/08/20 00:20:57;;;;;;;0.60;0.40;;;23.60;74.20;;;;;;5024083;28;20038;-78
2023/08/20 00:23:23;;;;;;;0.70;0.50;;;23.60;74.10;;;;;;5024047;28;20087;-78
2023/08/20 00:25:49;;;;;;;1.90;0.70;;;23.60;74.30;;;;;;5024147;28;20049;-78
2023/08/20 00:28:14;;;;;;;0.50;0.40;;;23.60;74.20;;;;;;5023986;28;20134;-78
2023/08/20 00:30:40;;;;;;;0.30;0.30;;;23.60;74.20;;;;;;5025455;28;20460;-78
2023/08/20 00:33:05;;;;;;;1.77;0.30;;;23.60;74.40;;;;;;5007066;28;20046;-78
2023/08/20 00:35:31;;;;;;;0.70;0.50;;;23.60;74.30;;;;;;5022844;28;20495;-78
2023/08/20 00:37:57;;;;;;;0.60;0.40;;;23.60;74.20;;;;;;5023782;28;20049;-78
2023/08/20 00:40:22;;;;;;;0.50;0.40;;;23.60;74.20;;;;;;5023685;28;20041;-78
2023/08/20 00:42:49;;;;;;;0.50;0.40;;;23.60;74.20;;;;;;5021948;28;20045;-78
2023/08/20 00:45:16;;;;;;;0.88;0.60;;;23.60;75.00;;;;;;5025901;28;20410;-78
2023/08/20 00:47:42;;;;;;;0.70;0.38;;;23.60;74.00;;;;;;5023454;28;20048;-78
2023/08/20 00:50:08;;;;;;;0.40;0.40;;;23.60;74.10;;;;;;5024213;28;20041;-78
2023/08/20 00:52:34;;;;;;;0.68;0.63;;;23.60;74.00;;;;;;5023332;28;20415;-78
2023/08/20 00:54:59;;;;;;;0.60;0.40;;;23.60;74.00;;;;;;5023455;28;20044;-78
2023/08/20 00:57:25;;;;;;;0.70;0.60;;;23.60;74.00;;;;;;5024893;28;20045;-78
2023/08/20 00:59:50;;;;;;;0.73;0.50;;;23.60;73.80;;;;;;5007158;28;20040;-78
2023/08/20 01:02:19;;;;;;;0.40;0.40;;;23.60;73.90;;;;;;5006153;28;20103;-78
2023/08/20 01:04:45;;;;;;;0.30;0.30;;;23.60;74.00;;;;;;5021501;28;20041;-78
2023/08/20 01:07:30;;;;;;;0.20;0.20;;;23.60;74.10;;;;;;5022705;28;20092;-78
2023/08/20 01:10:14;;;;;;;0.40;0.40;;;23.60;73.90;;;;;;5005589;28;20418;-78
2023/08/20 01:12:40;;;;;;;0.55;0.50;;;23.60;74.00;;;;;;5021579;28;20049;-78
2023/08/20 01:15:06;;;;;;;0.57;0.52;;;23.60;74.10;;;;;;5022675;28;20049;-78
2023/08/20 01:17:31;;;;;;;0.63;0.50;;;23.60;74.00;;;;;;5023844;28;20112;-78
2023/08/20 01:19:57;;;;;;;0.40;0.40;;;23.60;74.00;;;;;;5021279;28;20137;-78
2023/08/20 01:22:48;;;;;;;0.52;0.40;;;23.50;73.90;;;;;;5006039;28;20095;-78
2023/08/20 01:25:34;;;;;;;0.70;0.52;;;23.60;73.90;;;;;;5022011;28;20041;-78
2023/08/20 01:28:19;;;;;;;0.60;0.40;;;23.60;73.90;;;;;;5022930;28;20045;-78
2023/08/20 01:30:44;;;;;;;0.80;0.30;;;23.60;73.90;;;;;;5024552;28;20457;-78
2023/08/20 01:33:12;;;;;;;0.60;0.35;;;23.60;73.90;;;;;;5024051;28;20038;-78
2023/08/20 01:35:38;;;;;;;0.68;0.45;;;23.50;73.80;;;;;;5021589;28;20530;-78
2023/08/20 01:38:03;;;;;;;0.52;0.52;;;23.60;74.60;;;;;;5023482;28;20057;-78
2023/08/20 01:40:29;;;;;;;0.60;0.40;;;23.50;73.80;;;;;;5022734;28;20054;-78
2023/08/20 01:42:55;;;;;;;0.40;0.40;;;23.50;73.90;;;;;;5023511;28;20125;-78
2023/08/20 01:45:21;;;;;;;0.60;0.40;;;23.60;73.90;;;;;;5025560;28;20035;-79
2023/08/20 01:47:47;;;;;;;0.63;0.50;;;23.50;73.80;;;;;;5023896;28;20460;-78
2023/08/20 01:50:12;;;;;;;0.52;0.40;;;23.50;73.70;;;;;;5023278;28;20136;-79
2023/08/20 01:52:38;;;;;;;0.90;0.60;;;23.50;73.70;;;;;;5024395;28;20392;-78
2023/08/20 01:55:04;;;;;;;0.30;0.30;;;23.60;73.70;;;;;;5025686;28;20043;-78
2023/08/20 01:57:30;;;;;;;0.63;0.57;;;23.50;73.70;;;;;;5028992;28;20051;-78
2023/08/20 01:59:56;;;;;;;0.47;0.40;;;23.50;74.50;;;;;;5027210;28;20471;-78
2023/08/20 02:02:21;;;;;;;0.75;0.50;;;23.50;73.60;;;;;;5026753;28;20041;-78
2023/08/20 02:04:47;;;;;;;0.60;0.40;;;23.50;73.60;;;;;;5027004;28;20045;-78
2023/08/20 02:07:12;;;;;;;0.60;0.55;;;23.50;73.90;;;;;;5026988;28;20411;-78
2023/08/20 02:09:38;;;;;;;0.45;0.30;;;23.50;73.60;;;;;;5027251;28;20041;-78
2023/08/20 02:12:04;;;;;;;0.50;0.35;;;23.50;73.70;;;;;;5027562;28;20124;-78
2023/08/20 02:14:33;;;;;;;0.40;0.40;;;23.50;73.70;;;;;;5027673;28;20080;-78
2023/08/20 02:16:58;;;;;;;0.95;0.30;;;23.50;73.70;;;;;;5025953;28;20433;-79
2023/08/20 02:19:24;;;;;;;0.65;0.50;;;23.50;73.70;;;;;;5024655;28;20495;-78
2023/08/20 02:21:50;;;;;;;0.32;0.32;;;23.50;73.70;;;;;;5027273;28;20045;-78
2023/08/20 02:24:15;;;;;;;0.80;0.47;;;23.50;73.70;;;;;;5027753;28;20038;-78
2023/08/20 02:26:41;;;;;;;0.60;0.40;;;23.50;73.80;;;;;;5026318;28;20563;-78
2023/08/20 02:29:06;;;;;;;0.60;0.40;;;23.50;74.10;;;;;;5024717;28;20588;-78
2023/08/20 02:31:32;;;;;;;0.38;0.35;;;23.50;73.80;;;;;;5026752;28;20033;-78
2023/08/20 02:33:57;;;;;;;0.20;0.20;;;23.50;73.80;;;;;;5027029;28;20029;-78
2023/08/20 02:36:23;;;;;;;0.55;0.45;;;23.50;73.70;;;;;;5028017;28;20073;-78
2023/08/20 02:38:49;;;;;;;0.40;0.40;;;23.50;73.60;;;;;;5026690;28;20503;-78
2023/08/20 02:41:15;;;;;;;1.10;0.35;;;23.50;73.60;;;;;;5025308;28;20506;-78
2023/08/20 02:43:40;;;;;;;1.42;0.70;;;23.50;73.60;;;;;;5026668;28;20041;-78
2023/08/20 02:46:06;;;;;;;0.47;0.40;;;23.40;73.50;;;;;;5025518;28;20060;-78
2023/08/20 02:48:31;;;;;;;0.43;0.43;;;23.40;73.60;;;;;;5024722;28;20041;-78
2023/08/20 02:50:57;;;;;;;0.52;0.30;;;23.50;73.60;;;;;;5026880;28;20907;-78
2023/08/20 02:53:22;;;;;;;0.50;0.40;;;23.50;73.60;;;;;;5026742;28;20042;-79
2023/08/20 02:55:48;;;;;;;0.45;0.40;;;23.50;73.60;;;;;;5025083;28;20033;-78
2023/08/20 02:58:14;;;;;;;0.60;0.45;;;23.40;73.60;;;;;;5026309;28;20090;-78
2023/08/20 03:00:39;;;;;;;0.50;0.45;;;23.40;73.60;;;;;;5026961;28;20396;-79
2023/08/20 03:03:07;;;;;;;0.65;0.40;;;23.40;73.50;;;;;;5026014;28;20045;-78
2023/08/20 03:05:33;;;;;;;0.60;0.60;;;23.40;73.50;;;;;;5024735;28;20040;-78
2023/08/20 03:07:58;;;;;;;0.60;0.55;;;23.40;73.60;;;;;;5023274;28;20041;-78
2023/08/20 03:10:26;;;;;;;0.55;0.52;;;23.40;73.60;;;;;;5025899;28;20065;-78
2023/08/20 03:12:51;;;;;;;0.30;0.30;;;23.40;73.60;;;;;;5026277;28;20049;-79
2023/08/20 03:15:17;;;;;;;0.57;0.50;;;23.40;73.60;;;;;;5026336;28;20061;-78
2023/08/20 03:17:42;;;;;;;0.52;0.40;;;23.40;73.60;;;;;;5025742;28;20059;-78
2023/08/20 03:20:09;;;;;;;0.32;0.30;;;23.40;73.50;;;;;;5024513;28;20487;-78
2023/08/20 03:22:36;;;;;;;1.00;0.47;;;23.40;73.50;;;;;;5026081;28;20333;-78
2023/08/20 03:25:02;;;;;;;0.80;0.50;;;23.40;73.40;;;;;;5024263;28;20041;-78
2023/08/20 03:27:27;;;;;;;0.80;0.40;;;23.40;73.50;;;;;;5026868;28;20041;-78
2023/08/20 03:29:53;;;;;;;0.63;0.50;;;23.40;73.40;;;;;;5026142;28;20099;-78
2023/08/20 03:32:18;;;;;;;0.68;0.52;;;23.40;73.40;;;;;;5024579;28;20049;-78
2023/08/20 03:34:44;;;;;;;0.68;0.50;;;23.40;73.50;;;;;;5024807;28;20037;-78
2023/08/20 03:37:10;;;;;;;0.45;0.32;;;23.40;73.40;;;;;;5023866;28;20103;-78
2023/08/20 03:39:35;;;;;;;0.63;0.50;;;23.40;73.40;;;;;;5025083;28;20040;-78
2023/08/20 03:42:01;;;;;;;0.55;0.50;;;23.40;73.40;;;;;;5025991;28;20404;-78
2023/08/20 03:44:26;;;;;;;0.50;0.43;;;23.40;73.40;;;;;;5025921;28;20111;-78
2023/08/20 03:46:52;;;;;;;0.55;0.45;;;23.40;73.50;;;;;;5024237;28;20198;-78
2023/08/20 03:49:17;;;;;;;0.50;0.35;;;23.40;74.30;;;;;;5022908;28;20120;-78
2023/08/20 03:51:43;;;;;;;1.77;0.50;;;23.40;73.50;;;;;;5023336;28;20036;-78
2023/08/20 03:54:09;;;;;;;1.13;0.55;;;23.40;73.40;;;;;;5025768;28;20436;-78
2023/08/20 03:56:34;;;;;;;0.50;0.50;;;23.40;73.40;;;;;;5024895;28;20501;-78
2023/08/20 03:59:01;;;;;;;0.50;0.50;;;23.40;73.30;;;;;;5024435;28;20067;-78
2023/08/20 04:01:26;;;;;;;0.40;0.40;;;23.40;73.30;;;;;;5023697;28;20061;-78
2023/08/20 04:03:52;;;;;;;0.70;0.40;;;23.40;73.40;;;;;;5024185;28;20041;-78
2023/08/20 04:06:18;;;;;;;0.38;0.38;;;23.40;73.30;;;;;;5025567;28;20137;-78
2023/08/20 04:08:43;;;;;;;0.63;0.40;;;23.40;73.30;;;;;;5024866;28;20462;-78
2023/08/20 04:11:09;;;;;;;0.60;0.40;;;23.40;73.30;;;;;;5024279;28;20042;-78
2023/08/20 04:13:34;;;;;;;0.80;0.45;;;23.40;74.00;;;;;;5023986;28;20128;-78
2023/08/20 04:16:00;;;;;;;0.50;0.40;;;23.40;73.30;;;;;;5024620;28;20107;-78
2023/08/20 04:18:25;;;;;;;0.40;0.30;;;23.40;73.30;;;;;;5026037;28;20507;-78
2023/08/20 04:20:52;;;;;;;0.40;0.40;;;23.40;73.20;;;;;;5004474;28;20049;-78
2023/08/20 04:23:18;;;;;;;0.50;0.50;;;23.40;73.30;;;;;;5024190;28;20495;-78
2023/08/20 04:25:44;;;;;;;0.57;0.50;;;23.40;73.20;;;;;;5023780;28;20041;-78
2023/08/20 04:28:10;;;;;;;0.60;0.52;;;23.40;73.20;;;;;;5024491;28;20410;-78
2023/08/20 04:30:36;;;;;;;0.40;0.40;;;23.40;73.20;;;;;;5025480;28;20503;-78
2023/08/20 04:33:02;;;;;;;0.40;0.40;;;23.40;73.90;;;;;;5022941;28;20056;-78
2023/08/20 04:35:27;;;;;;;0.60;0.50;;;23.40;73.20;;;;;;5024636;28;20042;-78
2023/08/20 04:37:53;;;;;;;0.50;0.50;;;23.40;73.10;;;;;;5022763;28;20103;-78
2023/08/20 04:40:19;;;;;;;0.65;0.47;;;23.40;73.10;;;;;;5023460;28;20064;-78
2023/08/20 04:42:44;;;;;;;2.00;0.30;;;23.40;73.00;;;;;;5024384;28;20049;-78
2023/08/20 04:45:10;;;;;;;0.40;0.40;;;23.40;73.00;;;;;;5023050;28;20029;-78
2023/08/20 04:47:36;;;;;;;0.40;0.40;;;23.40;73.00;;;;;;5028399;28;20042;-78
2023/08/20 04:50:02;;;;;;;0.60;0.40;;;23.30;73.10;;;;;;5023324;28;20049;-78
2023/08/20 04:52:28;;;;;;;0.35;0.28;;;23.30;73.00;;;;;;5023457;28;20049;-78
2023/08/20 04:54:53;;;;;;;0.85;0.50;;;23.30;72.90;;;;;;5024553;28;20140;-78
2023/08/20 04:57:19;;;;;;;0.45;0.45;;;23.30;73.10;;;;;;5024411;28;20084;-78
2023/08/20 04:59:45;;;;;;;0.40;0.40;;;23.30;73.00;;;;;;5024754;28;20080;-78
2023/08/20 05:02:13;;;;;;;0.45;0.30;;;23.30;73.00;;;;;;5002560;28;20041;-78
2023/08/20 05:04:39;;;;;;;0.47;0.35;;;23.30;73.00;;;;;;5023406;28;20049;-78
2023/08/20 05:07:05;;;;;;;0.73;0.70;;;23.30;73.00;;;;;;5023450;28;20038;-78
2023/08/20 05:09:30;;;;;;;0.50;0.38;;;23.30;72.90;;;;;;5025367;28;20061;-78
2023/08/20 05:11:56;;;;;;;1.15;0.47;;;23.30;72.90;;;;;;5022390;28;20479;-78
2023/08/20 05:14:21;;;;;;;0.73;0.60;;;23.30;72.80;;;;;;5023837;28;20519;-78
2023/08/20 05:16:47;;;;;;;0.63;0.60;;;23.30;73.00;;;;;;5023527;28;20049;-78
2023/08/20 05:19:12;;;;;;;0.55;0.30;;;23.30;73.00;;;;;;5023754;28;20041;-78
2023/08/20 05:21:38;;;;;;;0.43;0.30;;;23.30;73.00;;;;;;5024442;28;20414;-78
2023/08/20 05:24:04;;;;;;;0.43;0.43;;;23.30;73.00;;;;;;5024592;28;20103;-78
2023/08/20 05:26:29;;;;;;;0.75;0.50;;;23.30;72.90;;;;;;5024109;28;20049;-78
2023/08/20 05:28:55;;;;;;;0.65;0.40;;;23.30;72.90;;;;;;5025581;28;20132;-79
2023/08/20 05:31:21;;;;;;;0.50;0.40;;;23.30;72.90;;;;;;5028226;28;20057;-78
2023/08/20 05:33:46;;;;;;;0.40;0.40;;;23.30;72.90;;;;;;5026765;28;20099;-78
2023/08/20 05:36:13;;;;;;;0.50;0.40;;;23.30;72.80;;;;;;5028139;28;20503;-78
2023/08/20 05:38:39;;;;;;;0.90;0.50;;;23.30;72.90;;;;;;5026511;28;20048;-78
2023/08/20 05:41:05;;;;;;;0.50;0.50;;;23.30;72.90;;;;;;5027519;28;20041;-78
2023/08/20 05:43:30;;;;;;;0.50;0.50;;;23.30;73.00;;;;;;5026045;28;20148;-79
2023/08/20 05:45:56;;;;;;;0.57;0.40;;;23.30;72.90;;;;;;5028047;28;20052;-79
2023/08/20 05:48:21;;;;;;;0.75;0.60;;;23.30;72.80;;;;;;5026809;28;20530;-79
2023/08/20 05:50:47;;;;;;;0.60;0.60;;;23.30;72.80;;;;;;5026912;28;20044;-79
2023/08/20 05:53:13;;;;;;;0.38;0.35;;;23.30;72.80;;;;;;5026006;28;20033;-79
2023/08/20 05:55:39;;;;;;;0.50;0.40;;;23.30;72.90;;;;;;5027667;28;20496;-79
2023/08/20 05:58:04;;;;;;;0.40;0.40;;;23.30;72.80;;;;;;5026431;28;20052;-78
2023/08/20 06:00:30;;;;;;;0.60;0.60;;;23.30;72.80;;;;;;5028068;28;20049;-79
2023/08/20 06:02:55;;;;;;;1.02;0.68;;;23.30;72.80;;;;;;5026888;28;20033;-79
2023/08/20 06:05:21;;;;;;;0.70;0.60;;;23.20;72.70;;;;;;5026673;28;20103;-79
2023/08/20 06:07:47;;;;;;;0.52;0.43;;;23.30;72.80;;;;;;5026365;28;20511;-79
2023/08/20 06:10:12;;;;;;;0.70;0.60;;;23.30;72.80;;;;;;5025095;28;20041;-79
2023/08/20 06:12:38;;;;;;;1.40;0.88;;;23.30;72.70;;;;;;5026999;28;20045;-79
2023/08/20 06:15:04;;;;;;;0.82;0.82;;;23.30;72.80;;;;;;5028439;28;20065;-79
2023/08/20 06:17:30;;;;;;;0.40;0.40;;;23.30;72.80;;;;;;5025354;28;20042;-79
2023/08/20 06:19:55;;;;;;;0.30;0.30;;;23.30;72.80;;;;;;5027317;28;20406;-79
2023/08/20 06:22:21;;;;;;;0.60;0.60;;;23.20;72.80;;;;;;5025970;28;20526;-78
2023/08/20 06:24:46;;;;;;;0.47;0.47;;;23.20;72.80;;;;;;5027670;28;20148;-79
2023/08/20 06:27:12;;;;;;;0.50;0.50;;;23.20;73.60;;;;;;5027964;28;20048;-79
2023/08/20 06:29:38;;;;;;;0.73;0.57;;;23.20;72.80;;;;;;5026922;28;20094;-79
2023/08/20 06:32:04;;;;;;;0.50;0.40;;;23.20;72.80;;;;;;5024216;28;20106;-79
2023/08/20 06:34:30;;;;;;;0.40;0.40;;;23.20;72.70;;;;;;5024907;28;20041;-79
2023/08/20 06:36:55;;;;;;;0.40;0.40;;;23.20;73.60;;;;;;5027346;28;24785;-79
2023/08/20 06:39:21;;;;;;;0.32;0.25;;;23.20;72.80;;;;;;5026725;28;20034;-79
2023/08/20 06:41:46;;;;;;;1.15;0.50;;;23.20;72.70;;;;;;5026493;28;20045;-79
2023/08/20 06:44:12;;;;;;;0.40;0.40;;;23.20;72.70;;;;;;5026417;28;20498;-79
2023/08/20 06:46:37;;;;;;;0.52;0.43;;;23.20;72.70;;;;;;5026991;28;20045;-79
2023/08/20 06:49:03;;;;;;;0.50;0.40;;;23.20;72.70;;;;;;5025902;28;20534;-79
2023/08/20 06:51:29;;;;;;;1.00;0.75;;;23.20;72.70;;;;;;5027528;28;20431;-79
2023/08/20 06:53:55;;;;;;;0.40;0.40;;;23.20;72.70;;;;;;5026975;28;20049;-79
2023/08/20 06:56:20;;;;;;;0.60;0.60;;;23.20;72.70;;;;;;5025140;28;20175;-79
2023/08/20 06:58:46;;;;;;;0.43;0.30;;;23.20;72.70;;;;;;5025552;28;20132;-79
2023/08/20 07:01:12;;;;;;;1.35;0.40;;;23.20;72.70;;;;;;5025599;28;20042;-79
2023/08/20 07:03:41;;;;;;;0.55;0.40;;;23.20;72.60;;;;;;5026236;28;20037;-79
2023/08/20 07:06:08;;;;;;;1.30;0.60;;;23.20;72.70;;;;;;5027088;28;20127;-79
2023/08/20 07:08:34;;;;;;;0.60;0.40;;;23.20;72.60;;;;;;5025287;28;20095;-79
2023/08/20 07:11:00;;;;;;;1.10;0.68;;;23.20;72.60;;;;;;5025104;28;20127;-79
2023/08/20 07:13:25;;;;;;;0.60;0.30;;;23.30;72.70;;;;;;5023400;28;20076;-80
2023/08/20 07:15:51;;;;;;;0.70;0.47;;;23.20;72.60;;;;;;5026397;28;20056;-79
2023/08/20 07:18:17;;;;;;;0.47;0.30;;;23.20;72.60;;;;;;5024634;28;20569;-79
2023/08/20 07:20:42;;;;;;;0.50;0.50;;;23.30;72.60;;;;;;5024761;28;20518;-79
2023/08/20 07:23:08;;;;;;;0.40;0.40;;;23.30;72.70;;;;;;5024828;28;20053;-79
2023/08/20 07:25:38;;;;;;;0.52;0.50;;;23.20;72.60;;;;;;5024216;28;20051;-79
2023/08/20 07:28:04;;;;;;;1.98;0.47;;;23.20;72.60;;;;;;5025297;28;20041;-80
2023/08/20 07:30:30;;;;;;;0.30;0.30;;;23.20;72.60;;;;;;5023726;28;20132;-79
2023/08/20 07:32:56;;;;;;;1.75;0.65;;;23.30;72.70;;;;;;5024512;28;20065;-79
2023/08/20 07:35:21;;;;;;;0.55;0.40;;;23.30;72.60;;;;;;5024242;28;20042;-80
2023/08/20 07:37:47;;;;;;;0.50;0.30;;;23.30;72.60;;;;;;5025921;28;20116;-79
2023/08/20 07:40:15;;;;;;;0.43;0.30;;;23.30;72.60;;;;;;5007958;28;20447;-79
2023/08/20 07:42:41;;;;;;;0.63;0.50;;;23.30;72.60;;;;;;5024670;28;20030;-79
2023/08/20 07:45:07;;;;;;;0.45;0.30;;;23.30;72.60;;;;;;5026283;28;20049;-79
2023/08/20 07:47:36;;;;;;;0.30;0.30;;;23.30;72.60;;;;;;5025172;28;20403;-79
2023/08/20 07:50:02;;;;;;;0.38;0.38;;;23.30;72.60;;;;;;5025889;28;20500;-79
2023/08/20 07:52:28;;;;;;;0.43;0.25;;;23.20;72.60;;;;;;5024870;28;20622;-79
2023/08/20 07:54:54;;;;;;;0.50;0.30;;;23.20;72.80;;;;;;5024038;28;20045;-79
2023/08/20 07:57:20;;;;;;;0.63;0.47;;;23.20;72.70;;;;;;5025855;28;20095;-79
2023/08/20 07:59:45;;;;;;;0.32;0.30;;;23.30;73.60;;;;;;5022783;28;20061;-79
2023/08/20 08:02:11;;;;;;;0.30;0.20;;;23.30;72.80;;;;;;5005673;28;20093;-79
2023/08/20 08:04:36;;;;;;;2.22;0.60;;;23.30;72.80;;;;;;5025198;28;20038;-79
2023/08/20 08:07:02;;;;;;;2.70;0.60;;;23.20;71.30;;;;;;5024890;28;20033;-79
2023/08/20 08:09:29;;;;;;;1.45;1.00;;;23.10;70.90;;;;;;5025605;28;20399;-79
2023/08/20 08:11:55;;;;;;;2.35;0.85;;;23.00;71.20;;;;;;5025851;28;20095;-79
2023/08/20 08:14:20;;;;;;;1.58;0.90;;;23.00;71.20;;;;;;5024539;28;20033;-79
2023/08/20 08:16:46;;;;;;;2.75;0.80;;;22.90;71.70;;;;;;5023643;28;20426;-79
2023/08/20 08:19:12;;;;;;;1.23;0.70;;;22.90;71.70;;;;;;5023924;28;20038;-79
2023/08/20 08:21:37;;;;;;;2.30;0.60;;;22.90;72.00;;;;;;5015430;28;20046;-79
2023/08/20 08:24:03;;;;;;;2.22;0.85;;;23.00;72.00;;;;;;5024555;28;20034;-80
2023/08/20 08:26:30;;;;;;;2.05;0.88;;;22.90;72.00;;;;;;5021485;28;20082;-80
2023/08/20 08:28:55;;;;;;;1.30;0.73;;;23.00;72.10;;;;;;5024428;28;20574;-80
2023/08/20 08:31:21;;;;;;;3.22;0.80;;;22.90;72.00;;;;;;5023112;28;20132;-79
2023/08/20 08:33:47;;;;;;;2.30;0.80;;;22.90;72.10;;;;;;5025445;28;20045;-80
2023/08/20 08:36:12;;;;;;;2.38;1.20;;;22.90;72.30;;;;;;5025149;28;20487;-79
2023/08/20 08:38:38;;;;;;;2.00;0.60;;;23.00;72.30;;;;;;5023876;28;20073;-79
2023/08/20 08:41:04;;;;;;;1.42;0.70;;;23.00;72.30;;;;;;5025710;28;20426;-79
2023/08/20 08:43:30;;;;;;;2.40;0.90;;;23.00;72.10;;;;;;5024264;28;20124;-80
2023/08/20 08:45:55;;;;;;;2.25;0.63;;;23.00;72.00;;;;;;5023388;28;20522;-79
2023/08/20 08:48:21;;;;;;;1.58;0.90;;;23.10;72.00;;;;;;5024749;28;20053;-79
2023/08/20 08:50:46;;;;;;;1.17;0.55;;;23.10;71.80;;;;;;5023954;28;20103;-79
2023/08/20 08:53:13;;;;;;;1.92;0.95;;;23.20;71.90;;;;;;5024807;28;20503;-79
2023/08/20 08:55:38;;;;;;;1.08;0.60;;;23.20;71.70;;;;;;5023397;28;20038;-79
2023/08/20 08:58:04;;;;;;;2.13;1.02;;;23.20;71.80;;;;;;5007225;28;20041;-79
2023/08/20 09:00:31;;;;;;;2.53;0.80;;;23.20;71.80;;;;;;4672310;28;9999626;-79
2023/08/20 09:02:57;;;;;;;1.85;0.70;;;23.20;72.10;;;;;;5018686;28;20136;-79
2023/08/20 09:05:22;;;;;;;0.90;0.55;;;23.30;72.30;;;;;;5024916;28;20052;-79
2023/08/20 09:07:49;;;;;;;0.65;0.60;;;23.30;72.10;;;;;;5024506;28;20041;-79
2023/08/20 09:10:18;;;;;;;0.85;0.50;;;23.40;72.30;;;;;;5008026;28;20111;-79
2023/08/20 09:12:44;;;;;;;1.25;0.60;;;23.40;72.50;;;;;;5007380;28;20160;-79
2023/08/20 09:15:12;;;;;;;0.75;0.50;;;23.40;72.60;;;;;;5023544;28;20128;-79
2023/08/20 09:17:38;;;;;;;0.63;0.38;;;23.40;72.70;;;;;;5024641;28;20046;-78
2023/08/20 09:20:04;;;;;;;1.20;0.50;;;23.30;72.60;;;;;;5025391;28;20422;-78
2023/08/20 09:22:30;;;;;;;0.60;0.50;;;23.40;72.80;;;;;;5021676;28;20045;-78
2023/08/20 09:24:56;;;;;;;1.45;0.52;;;23.30;72.80;;;;;;5025582;28;20045;-78
2023/08/20 09:27:22;;;;;;;1.08;0.70;;;23.40;72.70;;;;;;5024635;28;20285;-78
2023/08/20 09:29:49;;;;;;;0.93;0.70;;;23.40;72.80;;;;;;5025606;28;20593;-77
2023/08/20 09:32:18;;;;;;;1.08;0.63;;;23.40;72.80;;;;;;5023163;28;20042;-78
2023/08/20 09:34:44;;;;;;;1.90;0.93;;;23.40;72.70;;;;;;5022695;28;20562;-78
2023/08/20 09:37:13;;;;;;;3.88;0.63;;;23.40;72.70;;;;;;5023550;28;20033;-78
2023/08/20 09:39:39;;;;;;;0.57;0.55;;;23.40;72.60;;;;;;5022047;28;20097;-78
2023/08/20 09:42:08;;;;;;;0.60;0.40;;;23.50;72.60;;;;;;5025252;28;20515;-78
2023/08/20 09:44:35;;;;;;;1.17;0.60;;;23.50;72.40;;;;;;5023028;28;20586;-78
2023/08/20 09:47:22;;;;;;;1.20;0.57;;;23.50;72.40;;;;;;5023870;28;20490;-78
2023/08/20 09:49:48;;;;;;;0.68;0.40;;;23.50;72.40;;;;;;5018865;28;20116;-78
2023/08/20 09:52:35;;;;;;;0.43;0.40;;;23.50;72.30;;;;;;5007055;28;20435;-78
2023/08/20 09:55:27;;;;;;;1.00;0.45;;;23.50;72.20;;;;;;5006656;28;20037;-78
2023/08/20 09:57:53;;;;;;;0.57;0.40;;;23.50;72.20;;;;;;5021519;28;20037;-78
2023/08/20 10:00:18;;;;;;;0.68;0.47;;;23.50;72.10;;;;;;4990409;28;20497;-77
2023/08/20 10:02:44;;;;;;;0.85;0.47;;;23.50;72.10;;;;;;5021218;28;20454;-78
2023/08/20 10:05:10;;;;;;;1.20;0.50;;;23.50;72.10;;;;;;5023134;28;20037;-78
2023/08/20 10:07:36;;;;;;;0.95;0.45;;;23.50;72.00;;;;;;5000260;28;20037;-78
2023/08/20 10:10:04;;;;;;;0.77;0.50;;;23.60;72.10;;;;;;5024325;28;20612;-78
2023/08/20 10:12:29;;;;;;;0.70;0.25;;;23.60;72.10;;;;;;5022259;28;20045;-79
2023/08/20 10:14:56;;;;;;;1.23;0.63;;;23.60;72.20;;;;;;5019941;28;20064;-78
2023/08/20 10:17:22;;;;;;;1.05;0.40;;;23.60;72.20;;;;;;5006311;28;20122;-77
2023/08/20 10:19:48;;;;;;;1.65;0.40;;;23.60;72.20;;;;;;5021752;28;20500;-78
2023/08/20 10:22:13;;;;;;;0.70;0.50;;;23.60;72.40;;;;;;5020296;28;20044;-78
2023/08/20 10:24:48;;;;;;;0.55;0.40;;;23.60;72.50;;;;;;5004641;28;20096;-78
2023/08/20 10:27:32;;;;;;;0.82;0.40;;;23.70;72.70;;;;;;5022815;28;20076;-78
2023/08/20 10:29:59;;;;;;;0.93;0.40;;;23.70;72.30;;;;;;5023472;28;20045;-78
2023/08/20 10:32:44;;;;;;;0.40;0.40;;;23.70;72.30;;;;;;5022640;28;20108;-78
2023/08/20 10:35:09;;;;;;;0.70;0.50;;;23.70;72.30;;;;;;5024317;28;20450;-78
2023/08/20 10:37:37;;;;;;;0.65;0.43;;;23.70;72.20;;;;;;5022619;28;20129;-78
2023/08/20 10:40:04;;;;;;;0.50;0.30;;;23.70;72.20;;;;;;5020975;28;20073;-78
2023/08/20 10:42:29;;;;;;;0.63;0.38;;;23.70;72.10;;;;;;5022866;28;20048;-78
2023/08/20 10:45:10;;;;;;;2.42;0.63;;;23.70;72.00;;;;;;5023250;28;20045;-78
2023/08/20 10:47:44;;;;;;;0.30;0.30;;;23.70;71.90;;;;;;5021963;28;20495;-78
2023/08/20 10:50:15;;;;;;;0.20;0.20;;;23.70;71.90;;;;;;5022004;28;20415;-78
2023/08/20 10:52:42;;;;;;;1.58;0.60;;;23.70;71.90;;;;;;5022159;28;20066;-78
2023/08/20 10:55:10;;;;;;;0.73;0.45;;;23.70;71.80;;;;;;5023045;28;20049;-78
2023/08/20 10:57:36;;;;;;;0.60;0.30;;;23.80;71.90;;;;;;5021551;28;20033;-78
2023/08/20 11:00:10;;;;;;;2.80;0.40;;;23.80;71.70;;;;;;5005230;28;20030;-78
2023/08/20 11:02:36;;;;;;;;;;;23.70;71.70;;;;;;5019702;28;20401;-78
2023/08/20 11:05:04;;;;;;;0.57;0.43;;;23.80;71.70;;;;;;5023096;28;19927;-78
2023/08/20 11:07:31;;;;;;;0.70;0.40;;;23.80;71.70;;;;;;5021317;28;20121;-78
2023/08/20 11:09:57;;;;;;;0.95;0.40;;;23.80;72.20;;;;;;5003191;28;20057;-78
2023/08/20 11:12:23;;;;;;;5.50;1.60;;;23.80;72.80;;;;;;5017827;28;20573;-78
2023/08/20 11:14:48;;;;;;;10.50;2.08;;;23.80;75.50;;;;;;5004012;28;20144;-78
2023/08/20 11:17:14;;;;;;;3.75;1.88;;;23.80;77.30;;;;;;5020687;28;20041;-77
2023/08/20 11:19:40;;;;;;;2.65;2.15;;;23.80;79.40;;;;;;5020105;28;20049;-77
2023/08/20 11:22:05;;;;;;;3.60;2.45;;;23.80;79.40;;;;;;5021740;28;20037;-78
2023/08/20 11:24:31;;;;;;;3.50;3.30;;;23.90;81.30;;;;;;4988699;28;20179;-78
2023/08/20 11:26:56;;;;;;;2.45;2.25;;;23.90;81.30;;;;;;5022420;28;20088;-78
2023/08/20 11:29:22;;;;;;;2.22;1.80;;;23.90;80.70;;;;;;5021129;28;20053;-78
2023/08/20 11:31:48;;;;;;;1.95;1.20;;;23.80;78.10;;;;;;5022457;28;20042;-78
2023/08/20 11:34:13;;;;;;;0.90;0.75;;;23.80;77.10;;;;;;5022255;28;20511;-78
2023/08/20 11:36:42;;;;;;;3.85;0.82;;;23.90;76.30;;;;;;5021098;28;20025;-78
2023/08/20 11:39:08;;;;;;;2.05;0.65;;;23.90;76.20;;;;;;5021837;28;20041;-78
2023/08/20 11:41:36;;;;;;;0.65;0.55;;;23.90;75.70;;;;;;5004916;28;20424;-78
2023/08/20 11:44:03;;;;;;;0.75;0.63;;;23.90;75.00;;;;;;5021581;28;20045;-79
2023/08/20 11:46:28;;;;;;;1.05;0.50;;;24.00;74.80;;;;;;5020950;28;20162;-79
2023/08/20 11:49:01;;;;;;;0.68;0.45;;;23.90;74.60;;;;;;5022030;28;20049;-79
2023/08/20 11:51:26;;;;;;;0.82;0.47;;;23.90;74.50;;;;;;5021988;28;20076;-78
2023/08/20 11:53:52;;;;;;;0.52;0.50;;;24.00;74.30;;;;;;5022426;28;20521;-78
2023/08/20 11:56:18;;;;;;;0.80;0.40;;;24.00;74.40;;;;;;5020395;28;20103;-77
2023/08/20 11:58:43;;;;;;;1.52;0.60;;;23.90;73.70;;;;;;5006592;28;20096;-77
2023/08/20 12:01:09;;;;;;;0.80;0.32;;;24.00;73.60;;;;;;5025458;28;20522;-78
2023/08/20 12:03:37;;;;;;;1.02;0.68;;;23.90;73.60;;;;;;5016589;28;20442;-78
2023/08/20 12:06:20;;;;;;;0.50;0.43;;;23.90;73.40;;;;;;5024474;28;20133;-78
2023/08/20 12:08:45;;;;;;;0.35;0.22;;;24.00;73.20;;;;;;5022646;28;20053;-79
2023/08/20 12:11:11;;;;;;;1.02;0.52;;;24.00;72.90;;;;;;5023167;28;20052;-78
2023/08/20 12:13:36;;;;;;;0.95;0.40;;;23.90;72.80;;;;;;4988890;28;20506;-78
2023/08/20 12:16:02;;;;;;;0.38;0.30;;;24.00;72.60;;;;;;5008243;28;20045;-78
2023/08/20 12:18:29;;;;;;;1.52;0.70;;;24.00;72.50;;;;;;5023850;28;20075;-77
2023/08/20 12:20:55;;;;;;;0.85;0.55;;;24.00;72.40;;;;;;5024645;28;20099;-78
2023/08/20 12:23:21;;;;;;;1.25;0.40;;;24.00;72.30;;;;;;5024405;28;20076;-78
2023/08/20 12:25:50;;;;;;;0.60;0.30;;;24.00;72.10;;;;;;5005783;28;20046;-78
2023/08/20 12:28:16;;;;;;;0.40;0.30;;;24.00;72.00;;;;;;5006602;28;20030;-78
2023/08/20 12:30:41;;;;;;;1.30;0.50;;;24.00;71.90;;;;;;4989704;28;20054;-77
2023/08/20 12:33:07;;;;;;;0.98;0.38;;;24.00;71.90;;;;;;5022633;28;20041;-79
2023/08/20 12:35:33;;;;;;;0.40;0.20;;;24.00;71.80;;;;;;5021656;28;20522;-79
2023/08/20 12:37:58;;;;;;;0.52;0.28;;;24.00;71.80;;;;;;5032987;28;20056;-78
2023/08/20 12:40:24;;;;;;;0.73;0.47;;;24.00;71.70;;;;;;5001129;28;20083;-78
2023/08/20 12:42:49;;;;;;;0.88;0.32;;;24.00;71.70;;;;;;5021147;28;20057;-78
2023/08/20 12:45:15;;;;;;;0.60;0.28;;;24.00;71.60;;;;;;5024858;28;20164;-79